Pagrindinis puslapis
METAR-TAF:

METAR-TAF

Oro uostai :

Uden, Nyderlandai

platuma: 51-39N, ilguma: 005-42E, Aukštis: 22 m

Dabartinis oras

Ataskaita buvo paskelbta 29 minutes, ne 10:55 UTC
Vėjas 13 kt iš Rytų/Šiaurės Rytų, svyruoja nuo Šiaurės/Šiaurės Rytų ir Rytų/Pietryčių
Temperatūra 20°C
Drėgmė 35%
Slėgis 1023 hPa
Matomumas 10 km arba daugiau

METAR: EHVK 311055Z AUTO 06013KT 020V120 9999 NCD 20/04 Q1023 BLU

Laikas: 13:24 (11:24 UTC)

Prognozė

Ataskaita buvo paskelbta 2 valandos ir 48 minutes, ne 08:36 UTC
Prognozė galioja nuo 31 metu 09 UTC su 31 metu 21 UTC
Vėjas 14 kt iš Rytų/Šiaurės Rytų
Matomumas 10 km arba daugiau
nėra debesų žemiau 1500 m ir nėra kamuolinių lietaus debesų
Laikinai
nuo 31 metu 09 UTC su 31 metu 18 UTC
Vėjas 15 kt iš Rytų/Šiaurės Rytų su gūsio iki 25 kt

TAF: EHVK 310836Z 3109/3121 06014KT CAVOK TEMPO 3109/3118 07015G25KT

Orai ataskaitas ir orų prognozės (METAR, TAF).

turimą stotys yra geltonos ir raudonos taškus žemėlapyje.

Perkelti pele per norėdami pamatyti stoties vardą.

Tada spustelėkite, norėdami matyti oro stebėjimo ir prognozės.

Norėdami pakeisti žemėlapį: spustelėkite ant žalios mygtukų su juodo kryžiaus žemyn,; žalią mygtuką su brūkšneliu, jei norite nutolinti; arba žalių rodyklių gretimoms žemėlapius.


METAR-TAF: